CSN3519 ZGHA-ZGGG
Flight info
| Callsign | CSN3519 |
|---|---|
| Flight time | 0h 59m |
| Altitude | 22600 |
| Route | UBMOG W615 IDAXI R473 BEMAG V5 IRTAT |
| Aircraft | B738/M-SDE2E3FGHIJ1RWXY/LB1 |
Departure
| Time | 2026-05-08 03:09 |
|---|---|
| Airport | Changsha Huanghua International Airport (ZGHA) |
Arrival
| Time | 2026-05-08 04:09 |
|---|---|
| Airport | Guangzhou Baiyun International Airport (ZGGG) |
| Time | Latitude | Longitude | Altitude | Speed | Heading |
|---|---|---|---|---|---|
| 2026-05-08 02:52 | 28.18657 | 113.21549 | 212 ft | 0 kts | 358° |
| 2026-05-08 03:01 | 28.18642 | 113.21550 | 219 ft | 2 kts | 358° |
| 2026-05-08 03:02 | 28.18626 | 113.21550 | 214 ft | 2 kts | 358° |
| 2026-05-08 03:02 | 28.18610 | 113.21551 | 214 ft | 2 kts | 358° |
| 2026-05-08 03:02 | 28.18593 | 113.21551 | 214 ft | 2 kts | 19° |
| 2026-05-08 03:02 | 28.18581 | 113.21539 | 216 ft | 2 kts | 56° |
| 2026-05-08 03:03 | 28.18575 | 113.21522 | 219 ft | 2 kts | 90° |
| 2026-05-08 03:03 | 28.18574 | 113.21504 | 213 ft | 2 kts | 86° |
| 2026-05-08 03:03 | 28.18574 | 113.21487 | 215 ft | 0 kts | 86° |
| 2026-05-08 03:05 | 28.18574 | 113.21496 | 219 ft | 10 kts | 87° |
| 2026-05-08 03:05 | 28.18580 | 113.21662 | 212 ft | 22 kts | 86° |
| 2026-05-08 03:06 | 28.18584 | 113.21781 | 213 ft | 14 kts | 99° |
| 2026-05-08 03:06 | 28.18538 | 113.21822 | 213 ft | 7 kts | 187° |
| 2026-05-08 03:06 | 28.18432 | 113.21817 | 217 ft | 19 kts | 178° |
| 2026-05-08 03:06 | 28.18298 | 113.21824 | 213 ft | 19 kts | 175° |
| 2026-05-08 03:07 | 28.18167 | 113.21836 | 213 ft | 18 kts | 176° |
| 2026-05-08 03:07 | 28.18038 | 113.21843 | 215 ft | 23 kts | 177° |
| 2026-05-08 03:07 | 28.17843 | 113.21855 | 213 ft | 24 kts | 176° |
| 2026-05-08 03:07 | 28.17767 | 113.21871 | 215 ft | 12 kts | 148° |
| 2026-05-08 03:08 | 28.17751 | 113.21965 | 222 ft | 13 kts | 95° |
| 2026-05-08 03:08 | 28.17788 | 113.22040 | 220 ft | 12 kts | 9° |
| 2026-05-08 03:08 | 28.17841 | 113.22042 | 219 ft | 0 kts | 358° |
| 2026-05-08 03:09 | 28.17947 | 113.22036 | 216 ft | 52 kts | 357° |
| 2026-05-08 03:09 | 28.18610 | 113.21996 | 218 ft | 136 kts | 357° |
| 2026-05-08 03:09 | 28.19724 | 113.21945 | 678 ft | 168 kts | 359° |
| 2026-05-08 03:09 | 28.20982 | 113.21886 | 1519 ft | 187 kts | 356° |
| 2026-05-08 03:10 | 28.22254 | 113.21807 | 2605 ft | 195 kts | 359° |
| 2026-05-08 03:10 | 28.23682 | 113.21716 | 3186 ft | 207 kts | 360° |
| 2026-05-08 03:10 | 28.25160 | 113.21626 | 3823 ft | 218 kts | 359° |
| 2026-05-08 03:10 | 28.26699 | 113.21523 | 4539 ft | 224 kts | 358° |
| 2026-05-08 03:11 | 28.28270 | 113.21475 | 5330 ft | 228 kts | 9° |
| 2026-05-08 03:11 | 28.29701 | 113.22154 | 6268 ft | 223 kts | 39° |
| 2026-05-08 03:11 | 28.30675 | 113.23532 | 7039 ft | 231 kts | 66° |
| 2026-05-08 03:11 | 28.30976 | 113.25328 | 7787 ft | 237 kts | 94° |
| 2026-05-08 03:12 | 28.30466 | 113.27112 | 8542 ft | 243 kts | 126° |
| 2026-05-08 03:12 | 28.29226 | 113.28405 | 9331 ft | 245 kts | 151° |
| 2026-05-08 03:12 | 28.27699 | 113.29295 | 10123 ft | 250 kts | 156° |
| 2026-05-08 03:12 | 28.26120 | 113.30146 | 10856 ft | 253 kts | 157° |
| 2026-05-08 03:13 | 28.24516 | 113.30997 | 11592 ft | 257 kts | 158° |
| 2026-05-08 03:13 | 28.22885 | 113.31860 | 12327 ft | 261 kts | 158° |
| 2026-05-08 03:13 | 28.21225 | 113.32738 | 13062 ft | 265 kts | 159° |
| 2026-05-08 03:13 | 28.19537 | 113.33632 | 13802 ft | 270 kts | 159° |
| 2026-05-08 03:14 | 28.17865 | 113.34647 | 14458 ft | 279 kts | 144° |
| 2026-05-08 03:14 | 28.16614 | 113.36400 | 14923 ft | 299 kts | 119° |
| 2026-05-08 03:14 | 28.15714 | 113.38643 | 15119 ft | 326 kts | 114° |
| 2026-05-08 03:14 | 28.14829 | 113.41108 | 15293 ft | 351 kts | 113° |
| 2026-05-08 03:15 | 28.13891 | 113.43765 | 15456 ft | 374 kts | 114° |
| 2026-05-08 03:15 | 28.12886 | 113.46580 | 15571 ft | 396 kts | 114° |
| 2026-05-08 03:15 | 28.11818 | 113.49527 | 15795 ft | 412 kts | 114° |
| 2026-05-08 03:15 | 28.10709 | 113.52553 | 16258 ft | 419 kts | 114° |
| 2026-05-08 03:16 | 28.09581 | 113.55613 | 16851 ft | 423 kts | 114° |
| 2026-05-08 03:16 | 28.08438 | 113.58699 | 17404 ft | 428 kts | 114° |
| 2026-05-08 03:16 | 28.07279 | 113.61824 | 17934 ft | 433 kts | 115° |
| 2026-05-08 03:16 | 28.06058 | 113.64950 | 18410 ft | 436 kts | 122° |
| 2026-05-08 03:17 | 28.04152 | 113.67580 | 18826 ft | 431 kts | 145° |
| 2026-05-08 03:17 | 28.01596 | 113.69203 | 19330 ft | 419 kts | 168° |
| 2026-05-08 03:17 | 27.98758 | 113.69786 | 19819 ft | 411 kts | 182° |
| 2026-05-08 03:17 | 27.95905 | 113.69693 | 20273 ft | 410 kts | 190° |
| 2026-05-08 03:18 | 27.93055 | 113.69398 | 20715 ft | 413 kts | 191° |
| 2026-05-08 03:18 | 27.90182 | 113.69090 | 21171 ft | 416 kts | 191° |
| 2026-05-08 03:18 | 27.87289 | 113.68794 | 21623 ft | 419 kts | 190° |
| 2026-05-08 03:18 | 27.84369 | 113.68512 | 22064 ft | 422 kts | 190° |
| 2026-05-08 03:19 | 27.81432 | 113.68241 | 22512 ft | 425 kts | 190° |
| 2026-05-08 03:19 | 27.78475 | 113.67977 | 22947 ft | 428 kts | 190° |
| 2026-05-08 03:19 | 27.75497 | 113.67713 | 23361 ft | 431 kts | 190° |
| 2026-05-08 03:19 | 27.72493 | 113.67448 | 23761 ft | 434 kts | 190° |
| 2026-05-08 03:20 | 27.69473 | 113.67182 | 24119 ft | 436 kts | 190° |
| 2026-05-08 03:20 | 27.66443 | 113.66913 | 24463 ft | 438 kts | 190° |
| 2026-05-08 03:20 | 27.63393 | 113.66676 | 24834 ft | 441 kts | 188° |
| 2026-05-08 03:20 | 27.60306 | 113.66672 | 25172 ft | 446 kts | 184° |
| 2026-05-08 03:21 | 27.57188 | 113.66801 | 25484 ft | 450 kts | 184° |
| 2026-05-08 03:21 | 27.54053 | 113.66954 | 25803 ft | 452 kts | 184° |
| 2026-05-08 03:21 | 27.50928 | 113.67078 | 26375 ft | 446 kts | 185° |
| 2026-05-08 03:21 | 27.47833 | 113.67172 | 26696 ft | 446 kts | 185° |
| 2026-05-08 03:22 | 27.44706 | 113.67272 | 26727 ft | 455 kts | 183° |
| 2026-05-08 03:22 | 27.41534 | 113.67639 | 26746 ft | 461 kts | 179° |
| 2026-05-08 03:22 | 27.38347 | 113.68189 | 26742 ft | 465 kts | 177° |
| 2026-05-08 03:22 | 27.35149 | 113.68786 | 26747 ft | 466 kts | 177° |
| 2026-05-08 03:23 | 27.31944 | 113.69362 | 26748 ft | 467 kts | 177° |
| 2026-05-08 03:23 | 27.28731 | 113.69902 | 26738 ft | 467 kts | 178° |
| 2026-05-08 03:23 | 27.25560 | 113.70409 | 26738 ft | 467 kts | 178° |
| 2026-05-08 03:23 | 27.22347 | 113.70916 | 26746 ft | 466 kts | 178° |
| 2026-05-08 03:24 | 27.19099 | 113.71431 | 26736 ft | 465 kts | 178° |
| 2026-05-08 03:24 | 27.15897 | 113.71942 | 26725 ft | 464 kts | 178° |
| 2026-05-08 03:24 | 27.12744 | 113.72446 | 26740 ft | 462 kts | 178° |
| 2026-05-08 03:24 | 27.09568 | 113.72954 | 26737 ft | 461 kts | 178° |
| 2026-05-08 03:25 | 27.06391 | 113.73462 | 26741 ft | 461 kts | 178° |
| 2026-05-08 03:25 | 27.03214 | 113.73969 | 26734 ft | 461 kts | 178° |
| 2026-05-08 03:25 | 27.00039 | 113.74476 | 26742 ft | 461 kts | 178° |
| 2026-05-08 03:25 | 26.96865 | 113.74981 | 26735 ft | 462 kts | 178° |
| 2026-05-08 03:26 | 26.93683 | 113.75488 | 26738 ft | 462 kts | 178° |
| 2026-05-08 03:26 | 26.90496 | 113.75995 | 26742 ft | 462 kts | 178° |
| 2026-05-08 03:26 | 26.87309 | 113.76502 | 26734 ft | 463 kts | 178° |
| 2026-05-08 03:26 | 26.84117 | 113.77010 | 26738 ft | 463 kts | 178° |
| 2026-05-08 03:27 | 26.80924 | 113.77518 | 26741 ft | 464 kts | 178° |
| 2026-05-08 03:27 | 26.77724 | 113.78026 | 26734 ft | 464 kts | 178° |
| 2026-05-08 03:27 | 26.74532 | 113.78543 | 26731 ft | 465 kts | 176° |
| 2026-05-08 03:27 | 26.71350 | 113.79330 | 26731 ft | 470 kts | 171° |
| 2026-05-08 03:28 | 26.68204 | 113.80323 | 26740 ft | 471 kts | 169° |
| 2026-05-08 03:28 | 26.65062 | 113.81368 | 26734 ft | 471 kts | 169° |
| 2026-05-08 03:28 | 26.61919 | 113.82408 | 26731 ft | 471 kts | 169° |
| 2026-05-08 03:28 | 26.58774 | 113.83421 | 26737 ft | 470 kts | 169° |
| 2026-05-08 03:29 | 26.55623 | 113.84415 | 26734 ft | 470 kts | 170° |
| 2026-05-08 03:29 | 26.52479 | 113.85395 | 26742 ft | 470 kts | 170° |
| 2026-05-08 03:29 | 26.49329 | 113.86374 | 26744 ft | 469 kts | 170° |
| 2026-05-08 03:29 | 26.46177 | 113.87314 | 26737 ft | 469 kts | 171° |
| 2026-05-08 03:30 | 26.39858 | 113.89125 | 26743 ft | 469 kts | 171° |
| 2026-05-08 03:31 | 26.27213 | 113.92753 | 26741 ft | 469 kts | 171° |
| 2026-05-08 03:31 | 26.20894 | 113.94577 | 26731 ft | 469 kts | 171° |
| 2026-05-08 03:32 | 26.17739 | 113.95488 | 26731 ft | 469 kts | 171° |
| 2026-05-08 03:32 | 26.14622 | 113.96386 | 26733 ft | 469 kts | 171° |
| 2026-05-08 03:32 | 26.11423 | 113.97308 | 26729 ft | 469 kts | 171° |
| 2026-05-08 03:32 | 26.08308 | 113.98205 | 26732 ft | 469 kts | 171° |
| 2026-05-08 03:33 | 26.05151 | 113.99101 | 26735 ft | 467 kts | 173° |
| 2026-05-08 03:33 | 26.01965 | 113.99627 | 26731 ft | 461 kts | 181° |
| 2026-05-08 03:33 | 25.98780 | 113.99641 | 26722 ft | 454 kts | 190° |
| 2026-05-08 03:33 | 25.95676 | 113.99159 | 26742 ft | 450 kts | 194° |
| 2026-05-08 03:34 | 25.92579 | 113.98590 | 26717 ft | 451 kts | 195° |
| 2026-05-08 03:34 | 25.89485 | 113.98015 | 26707 ft | 451 kts | 195° |
| 2026-05-08 03:34 | 25.86391 | 113.97449 | 26723 ft | 450 kts | 194° |
| 2026-05-08 03:34 | 25.83295 | 113.96894 | 26709 ft | 451 kts | 194° |
| 2026-05-08 03:35 | 25.80198 | 113.96348 | 26703 ft | 450 kts | 194° |
| 2026-05-08 03:35 | 25.77107 | 113.95811 | 26679 ft | 449 kts | 194° |
| 2026-05-08 03:35 | 25.74024 | 113.95279 | 26743 ft | 448 kts | 194° |
| 2026-05-08 03:35 | 25.70930 | 113.94746 | 26730 ft | 450 kts | 194° |
| 2026-05-08 03:36 | 25.67826 | 113.94211 | 26714 ft | 452 kts | 194° |
| 2026-05-08 03:36 | 25.64711 | 113.93673 | 26718 ft | 454 kts | 194° |
| 2026-05-08 03:36 | 25.61583 | 113.93135 | 26716 ft | 456 kts | 194° |
| 2026-05-08 03:36 | 25.58449 | 113.92595 | 26726 ft | 457 kts | 194° |
| 2026-05-08 03:37 | 25.55304 | 113.92054 | 26704 ft | 458 kts | 194° |
| 2026-05-08 03:37 | 25.52153 | 113.91513 | 26710 ft | 458 kts | 194° |
| 2026-05-08 03:37 | 25.49004 | 113.90972 | 26706 ft | 457 kts | 194° |
| 2026-05-08 03:37 | 25.45865 | 113.90434 | 26695 ft | 456 kts | 194° |
| 2026-05-08 03:38 | 25.42732 | 113.89897 | 26699 ft | 455 kts | 194° |
| 2026-05-08 03:38 | 25.39606 | 113.89361 | 26701 ft | 454 kts | 194° |
| 2026-05-08 03:38 | 25.36487 | 113.88826 | 26683 ft | 453 kts | 194° |
| 2026-05-08 03:38 | 25.33382 | 113.88293 | 26707 ft | 451 kts | 194° |
| 2026-05-08 03:39 | 25.30271 | 113.87759 | 26693 ft | 452 kts | 194° |
| 2026-05-08 03:39 | 25.27166 | 113.87227 | 26698 ft | 452 kts | 194° |
| 2026-05-08 03:39 | 25.24050 | 113.86693 | 26688 ft | 453 kts | 194° |
| 2026-05-08 03:39 | 25.21990 | 113.86340 | 26687 ft | 453 kts | 194° |
| 2026-05-08 03:40 | 25.17855 | 113.85632 | 26680 ft | 454 kts | 194° |
| 2026-05-08 03:40 | 25.14737 | 113.85100 | 26681 ft | 454 kts | 194° |
| 2026-05-08 03:40 | 25.11612 | 113.84566 | 26684 ft | 454 kts | 194° |
| 2026-05-08 03:40 | 25.09501 | 113.84206 | 26686 ft | 455 kts | 194° |
| 2026-05-08 03:41 | 25.05317 | 113.83492 | 26685 ft | 455 kts | 194° |
| 2026-05-08 03:41 | 25.02221 | 113.82965 | 26680 ft | 456 kts | 194° |
| 2026-05-08 03:41 | 25.00105 | 113.82604 | 26677 ft | 456 kts | 194° |
| 2026-05-08 03:41 | 24.96966 | 113.82070 | 26681 ft | 457 kts | 193° |
| 2026-05-08 03:42 | 24.92803 | 113.81362 | 26668 ft | 457 kts | 193° |
| 2026-05-08 03:42 | 24.90680 | 113.81001 | 26676 ft | 457 kts | 193° |
| 2026-05-08 03:42 | 24.87539 | 113.80467 | 26671 ft | 457 kts | 193° |
| 2026-05-08 03:42 | 24.84399 | 113.79933 | 26678 ft | 457 kts | 193° |
| 2026-05-08 03:43 | 24.81257 | 113.79400 | 26666 ft | 456 kts | 194° |
| 2026-05-08 03:43 | 24.78121 | 113.78867 | 26667 ft | 456 kts | 193° |
| 2026-05-08 03:43 | 24.74988 | 113.78336 | 26666 ft | 456 kts | 193° |
| 2026-05-08 03:43 | 24.71852 | 113.77804 | 26674 ft | 456 kts | 193° |
| 2026-05-08 03:44 | 24.68711 | 113.77271 | 26663 ft | 456 kts | 193° |
| 2026-05-08 03:44 | 24.65573 | 113.76739 | 26672 ft | 456 kts | 193° |
| 2026-05-08 03:44 | 24.62433 | 113.76208 | 26668 ft | 457 kts | 193° |
| 2026-05-08 03:44 | 24.59294 | 113.75676 | 26665 ft | 457 kts | 193° |
| 2026-05-08 03:45 | 24.56154 | 113.75145 | 26663 ft | 457 kts | 193° |
| 2026-05-08 03:45 | 24.53035 | 113.74520 | 26573 ft | 456 kts | 197° |
| 2026-05-08 03:45 | 24.49961 | 113.73779 | 26086 ft | 458 kts | 197° |
| 2026-05-08 03:45 | 24.46878 | 113.72978 | 25622 ft | 454 kts | 198° |
| 2026-05-08 03:46 | 24.43815 | 113.72172 | 25148 ft | 451 kts | 198° |
| 2026-05-08 03:46 | 24.40772 | 113.71378 | 24653 ft | 448 kts | 197° |
| 2026-05-08 03:46 | 24.37752 | 113.70604 | 24204 ft | 445 kts | 197° |
| 2026-05-08 03:46 | 24.34741 | 113.69844 | 23743 ft | 443 kts | 197° |
| 2026-05-08 03:47 | 24.31739 | 113.69094 | 23218 ft | 441 kts | 196° |
| 2026-05-08 03:47 | 24.28757 | 113.68353 | 22682 ft | 439 kts | 196° |
| 2026-05-08 03:47 | 24.25784 | 113.67617 | 22159 ft | 437 kts | 196° |
| 2026-05-08 03:47 | 24.22828 | 113.66885 | 21642 ft | 434 kts | 196° |
| 2026-05-08 03:48 | 24.19896 | 113.66160 | 21131 ft | 430 kts | 196° |
| 2026-05-08 03:48 | 24.16993 | 113.65442 | 20615 ft | 424 kts | 196° |
| 2026-05-08 03:48 | 24.14138 | 113.64736 | 20128 ft | 417 kts | 196° |
| 2026-05-08 03:48 | 24.11330 | 113.64042 | 19656 ft | 412 kts | 196° |
| 2026-05-08 03:49 | 24.08549 | 113.63353 | 19166 ft | 408 kts | 196° |
| 2026-05-08 03:49 | 24.05791 | 113.62672 | 18691 ft | 404 kts | 196° |
| 2026-05-08 03:49 | 24.03055 | 113.61995 | 18242 ft | 401 kts | 196° |
| 2026-05-08 03:49 | 24.00343 | 113.61324 | 17693 ft | 399 kts | 195° |
| 2026-05-08 03:50 | 23.97645 | 113.60657 | 17174 ft | 396 kts | 195° |
| 2026-05-08 03:50 | 23.94967 | 113.59996 | 16626 ft | 394 kts | 195° |
| 2026-05-08 03:50 | 23.92302 | 113.59338 | 16130 ft | 391 kts | 195° |
| 2026-05-08 03:50 | 23.89660 | 113.58686 | 15616 ft | 388 kts | 195° |
| 2026-05-08 03:51 | 23.87034 | 113.58038 | 15133 ft | 386 kts | 195° |
| 2026-05-08 03:51 | 23.84426 | 113.57396 | 14639 ft | 383 kts | 195° |
| 2026-05-08 03:51 | 23.81832 | 113.56756 | 14181 ft | 381 kts | 195° |
| 2026-05-08 03:51 | 23.79255 | 113.56121 | 13677 ft | 379 kts | 195° |
| 2026-05-08 03:52 | 23.76689 | 113.55489 | 13145 ft | 376 kts | 195° |
| 2026-05-08 03:52 | 23.74147 | 113.54864 | 12630 ft | 374 kts | 195° |
| 2026-05-08 03:52 | 23.71627 | 113.54189 | 12115 ft | 371 kts | 199° |
| 2026-05-08 03:52 | 23.69225 | 113.53177 | 11613 ft | 369 kts | 205° |
| 2026-05-08 03:53 | 23.66895 | 113.52026 | 11108 ft | 365 kts | 206° |
| 2026-05-08 03:53 | 23.64597 | 113.50899 | 10616 ft | 361 kts | 205° |
| 2026-05-08 03:53 | 23.62306 | 113.49819 | 10122 ft | 355 kts | 205° |
| 2026-05-08 03:53 | 23.60073 | 113.48791 | 9595 ft | 342 kts | 204° |
| 2026-05-08 03:54 | 23.57874 | 113.47928 | 9061 ft | 331 kts | 197° |
| 2026-05-08 03:54 | 23.55673 | 113.47311 | 8535 ft | 322 kts | 194° |
| 2026-05-08 03:54 | 23.53518 | 113.46772 | 8026 ft | 314 kts | 194° |
| 2026-05-08 03:54 | 23.51407 | 113.46244 | 7517 ft | 308 kts | 194° |
| 2026-05-08 03:55 | 23.49362 | 113.45721 | 7038 ft | 303 kts | 194° |
| 2026-05-08 03:55 | 23.47327 | 113.45188 | 6532 ft | 299 kts | 194° |
| 2026-05-08 03:55 | 23.45313 | 113.44653 | 6036 ft | 295 kts | 193° |
| 2026-05-08 03:55 | 23.43335 | 113.44121 | 5520 ft | 292 kts | 193° |
| 2026-05-08 03:56 | 23.41377 | 113.43592 | 5091 ft | 286 kts | 192° |
| 2026-05-08 03:56 | 23.39501 | 113.43085 | 4935 ft | 269 kts | 193° |
| 2026-05-08 03:56 | 23.37738 | 113.42607 | 4894 ft | 256 kts | 193° |
| 2026-05-08 03:56 | 23.36029 | 113.42144 | 4897 ft | 251 kts | 193° |
| 2026-05-08 03:57 | 23.34339 | 113.41687 | 4895 ft | 251 kts | 193° |
| 2026-05-08 03:57 | 23.32631 | 113.41225 | 4912 ft | 255 kts | 193° |
| 2026-05-08 03:57 | 23.30891 | 113.40755 | 4926 ft | 260 kts | 193° |
| 2026-05-08 03:57 | 23.29118 | 113.40276 | 4909 ft | 265 kts | 193° |
| 2026-05-08 03:58 | 23.27343 | 113.39795 | 4900 ft | 260 kts | 193° |
| 2026-05-08 03:58 | 23.25586 | 113.39319 | 4915 ft | 261 kts | 194° |
| 2026-05-08 03:58 | 23.23824 | 113.38843 | 4904 ft | 260 kts | 194° |
| 2026-05-08 03:58 | 23.22080 | 113.38371 | 4870 ft | 255 kts | 194° |
| 2026-05-08 03:59 | 23.20386 | 113.37912 | 4871 ft | 248 kts | 194° |
| 2026-05-08 03:59 | 23.18715 | 113.37461 | 4890 ft | 249 kts | 194° |
| 2026-05-08 03:59 | 23.17013 | 113.37000 | 4890 ft | 255 kts | 194° |
| 2026-05-08 03:59 | 23.15274 | 113.36531 | 4912 ft | 260 kts | 194° |
| 2026-05-08 04:00 | 23.13524 | 113.36058 | 4902 ft | 258 kts | 194° |
| 2026-05-08 04:00 | 23.11790 | 113.35590 | 4903 ft | 257 kts | 194° |
| 2026-05-08 04:00 | 23.10058 | 113.35122 | 4894 ft | 256 kts | 194° |
| 2026-05-08 04:00 | 23.08423 | 113.34430 | 4876 ft | 253 kts | 220° |
| 2026-05-08 04:01 | 23.07459 | 113.32927 | 4905 ft | 238 kts | 256° |
| 2026-05-08 04:01 | 23.07296 | 113.31218 | 4883 ft | 219 kts | 276° |
| 2026-05-08 04:01 | 23.07533 | 113.29656 | 4874 ft | 200 kts | 283° |
| 2026-05-08 04:01 | 23.07825 | 113.28207 | 4894 ft | 195 kts | 283° |
| 2026-05-08 04:02 | 23.08117 | 113.26765 | 4910 ft | 195 kts | 284° |
| 2026-05-08 04:02 | 23.08412 | 113.25335 | 4910 ft | 194 kts | 288° |
| 2026-05-08 04:02 | 23.09182 | 113.24190 | 4908 ft | 191 kts | 332° |
| 2026-05-08 04:02 | 23.10480 | 113.23990 | 4907 ft | 193 kts | 7° |
| 2026-05-08 04:03 | 23.11780 | 113.24160 | 4889 ft | 187 kts | 6° |
| 2026-05-08 04:03 | 23.14394 | 113.24663 | 4898 ft | 195 kts | 12° |
| 2026-05-08 04:03 | 23.15699 | 113.24997 | 4872 ft | 190 kts | 13° |
| 2026-05-08 04:04 | 23.16971 | 113.25337 | 4886 ft | 187 kts | 13° |
| 2026-05-08 04:04 | 23.18252 | 113.25684 | 4711 ft | 198 kts | 14° |
| 2026-05-08 04:04 | 23.19674 | 113.26070 | 3926 ft | 216 kts | 15° |
| 2026-05-08 04:04 | 23.21222 | 113.26491 | 2801 ft | 242 kts | 15° |
| 2026-05-08 04:05 | 23.22799 | 113.26919 | 2665 ft | 222 kts | 15° |
| 2026-05-08 04:05 | 23.24242 | 113.27311 | 2316 ft | 212 kts | 15° |
| 2026-05-08 04:05 | 23.25682 | 113.27705 | 1940 ft | 213 kts | 13° |
| 2026-05-08 04:05 | 23.27075 | 113.28082 | 1798 ft | 198 kts | 14° |
| 2026-05-08 04:06 | 23.28325 | 113.28422 | 1748 ft | 175 kts | 14° |
| 2026-05-08 04:06 | 23.29485 | 113.28756 | 1417 ft | 170 kts | 14° |
| 2026-05-08 04:06 | 23.30604 | 113.29099 | 1187 ft | 159 kts | 12° |
| 2026-05-08 04:06 | 23.31626 | 113.29340 | 866 ft | 146 kts | 13° |
| 2026-05-08 04:07 | 23.32578 | 113.29574 | 629 ft | 136 kts | 15° |
| 2026-05-08 04:07 | 23.33481 | 113.29834 | 525 ft | 135 kts | 14° |
| 2026-05-08 04:07 | 23.34405 | 113.30087 | 425 ft | 139 kts | 15° |
| 2026-05-08 04:07 | 23.35323 | 113.30327 | 384 ft | 132 kts | 15° |
| 2026-05-08 04:08 | 23.36207 | 113.30568 | 236 ft | 131 kts | 13° |
| 2026-05-08 04:08 | 23.37099 | 113.30810 | 88 ft | 135 kts | 14° |
| 2026-05-08 04:08 | 23.37981 | 113.31052 | 49 ft | 121 kts | 13° |
| 2026-05-08 04:08 | 23.38590 | 113.31214 | 52 ft | 59 kts | 14° |
| 2026-05-08 04:09 | 23.38837 | 113.31281 | 52 ft | 30 kts | 14° |
| 2026-05-08 04:09 | 23.39049 | 113.31291 | 51 ft | 32 kts | 345° |
| 2026-05-08 04:09 | 23.39131 | 113.31263 | 53 ft | 0 kts | 341° |